Time;durP1;ratioP1;P1;durP2;ratioP2;P2;SDS_P1;SDS_P2;PMS_P1;PMS_P2;Temp;Humidity;BMP_temperature;BMP_pressure;BME280_temperature;BME280_humidity;BME280_pressure;Samples;Min_cycle;Max_cycle;Signal;HPM_P1;HPM_P2
2023/06/07 00:03:22;;;;;;;1999.90;999.90;;;19.10;94.90;;;;;;6636378;89;20226;-80
2023/06/07 00:13:23;;;;;;;1999.90;999.90;;;18.90;97.50;;;;;;6636512;89;20180;-80
2023/06/07 00:23:26;;;;;;;1999.90;999.90;;;18.70;97.90;;;;;;6637463;89;20234;-81
2023/06/07 00:33:27;;;;;;;1999.90;999.90;;;18.50;99.90;;;;;;6636218;89;20189;-80
2023/06/07 00:43:27;;;;;;;1999.90;999.90;;;18.30;99.90;;;;;;6636302;89;20193;-79
2023/06/07 00:53:29;;;;;;;1999.90;999.90;;;18.10;99.90;;;;;;6636401;89;20223;-80
2023/06/07 01:03:30;;;;;;;1999.90;999.90;;;18.20;99.90;;;;;;6637585;89;20208;-80
2023/06/07 01:13:32;;;;;;;1999.90;999.90;;;17.90;99.90;;;;;;6640562;89;20269;-80
2023/06/07 01:23:34;;;;;;;1999.90;999.90;;;17.90;99.90;;;;;;6637345;89;20189;-79
2023/06/07 01:33:36;;;;;;;1999.90;999.90;;;18.00;99.90;;;;;;6636251;89;20197;-80
2023/06/07 01:43:37;;;;;;;1999.90;999.90;;;18.00;99.90;;;;;;6638931;89;20193;-80
2023/06/07 01:53:38;;;;;;;1999.90;999.90;;;18.00;99.90;;;;;;6643793;89;20216;-80
2023/06/07 02:03:43;;;;;;;1999.90;999.90;;;18.10;99.90;;;;;;6638169;89;20255;-79
2023/06/07 02:13:44;;;;;;;1999.90;999.90;;;18.10;99.90;;;;;;6662227;78;20192;-78
2023/06/07 02:23:44;;;;;;;1999.90;999.90;;;18.10;99.90;;;;;;6723716;88;20851;-77
2023/06/07 02:33:45;;;;;;;1999.90;999.90;;;18.00;99.90;;;;;;6731611;88;20203;-77
2023/06/07 02:43:45;;;;;;;1999.90;999.90;;;18.00;99.90;;;;;;6743280;88;20214;-77
2023/06/07 02:53:49;;;;;;;1999.90;999.90;;;17.90;99.90;;;;;;6743569;88;20250;-78
2023/06/07 03:03:49;;;;;;;1999.90;999.90;;;17.90;99.90;;;;;;6734400;88;20181;-79
2023/06/07 03:13:50;;;;;;;1999.90;999.90;;;17.90;99.90;;;;;;6732179;88;20253;-76
2023/06/07 03:23:52;;;;;;;1999.90;999.90;;;17.90;99.90;;;;;;6729500;88;20215;-76
2023/06/07 03:33:53;;;;;;;1999.90;999.90;;;17.90;99.90;;;;;;6742194;88;20218;-77
2023/06/07 03:43:54;;;;;;;1999.90;999.90;;;17.90;99.90;;;;;;6715752;88;20631;-77
2023/06/07 03:53:54;;;;;;;1999.90;999.90;;;17.80;99.90;;;;;;6728487;88;20639;-79
2023/06/07 04:03:55;;;;;;;1999.90;999.90;;;17.90;99.90;;;;;;6733939;87;20660;-77
2023/06/07 04:13:56;;;;;;;1999.90;999.90;;;17.90;99.90;;;;;;6735045;88;20275;-77
2023/06/07 04:23:57;;;;;;;1999.90;999.90;;;17.80;99.90;;;;;;6733718;88;20226;-77
2023/06/07 04:34:01;;;;;;;1999.90;999.90;;;17.80;99.90;;;;;;6730332;88;20259;-78
2023/06/07 04:44:03;;;;;;;1999.90;999.90;;;17.50;99.90;;;;;;6726882;88;20302;-79
2023/06/07 04:54:04;;;;;;;1999.90;999.90;;;16.70;99.90;;;;;;6724846;88;20305;-77
2023/06/07 05:04:04;;;;;;;1999.90;999.90;;;16.50;99.90;;;;;;6729652;88;20196;-78
2023/06/07 05:14:05;;;;;;;1999.90;999.90;;;16.40;99.90;;;;;;6730928;88;20676;-78
2023/06/07 05:24:06;;;;;;;1999.90;999.90;;;16.30;99.90;;;;;;6738072;88;20765;-80
2023/06/07 05:34:06;;;;;;;1999.90;999.90;;;16.30;99.90;;;;;;6742016;88;20282;-78
2023/06/07 05:44:07;;;;;;;1999.90;999.90;;;16.40;99.90;;;;;;6738382;88;20515;-79
2023/06/07 05:54:07;;;;;;;1999.90;999.90;;;16.70;99.90;;;;;;6735948;88;20274;-79
2023/06/07 06:04:08;;;;;;;1999.90;999.90;;;16.60;99.90;;;;;;6734850;88;21037;-78
2023/06/07 06:14:08;;;;;;;1999.90;999.90;;;16.90;99.90;;;;;;6743795;88;20670;-78
2023/06/07 06:24:09;;;;;;;1999.90;999.90;;;17.10;99.90;;;;;;6725183;88;20264;-79
2023/06/07 06:34:10;;;;;;;1999.90;999.90;;;17.20;99.90;;;;;;6727928;88;20219;-81
2023/06/07 06:44:10;;;;;;;1999.90;999.90;;;17.40;99.90;;;;;;6725553;88;20251;-80
2023/06/07 06:54:12;;;;;;;1999.90;999.90;;;17.40;99.90;;;;;;6721865;88;20227;-80
2023/06/07 07:04:16;;;;;;;1999.90;999.90;;;17.40;99.90;;;;;;6721490;88;20222;-81
2023/06/07 07:14:17;;;;;;;1999.90;999.90;;;17.40;99.90;;;;;;6721245;88;20323;-80
2023/06/07 07:24:17;;;;;;;1999.90;999.90;;;17.40;99.90;;;;;;6723028;88;20216;-79
2023/06/07 07:34:18;;;;;;;1999.90;999.90;;;17.50;99.90;;;;;;6718003;88;20220;-79
2023/06/07 07:44:18;;;;;;;1999.90;999.90;;;17.70;99.90;;;;;;6722636;88;20193;-79
2023/06/07 07:54:19;;;;;;;1999.90;999.90;;;17.80;99.90;;;;;;6720858;88;20632;-80
2023/06/07 08:04:19;;;;;;;1999.90;999.90;;;18.30;99.90;;;;;;6721326;88;20294;-83
2023/06/07 08:14:20;;;;;;;1999.90;999.90;;;18.50;99.90;;;;;;6716485;77;20762;-80
2023/06/07 08:24:21;;;;;;;1999.90;999.90;;;18.80;99.90;;;;;;6740072;88;20324;-81
2023/06/07 08:34:27;;;;;;;1999.90;999.90;;;19.40;99.90;;;;;;6741626;88;20238;-81
2023/06/07 08:44:27;;;;;;;1999.90;999.90;;;20.50;99.90;;;;;;6742398;88;20584;-81
2023/06/07 08:54:30;;;;;;;1999.90;999.90;;;21.70;99.90;;;;;;6746185;88;20255;-80
2023/06/07 09:04:30;;;;;;;1999.90;999.90;;;22.50;99.90;;;;;;6742823;88;20197;-80
2023/06/07 09:14:31;;;;;;;1999.90;999.90;;;23.60;99.90;;;;;;6739122;87;20200;-80
2023/06/07 09:24:33;;;;;;;1999.90;999.90;;;24.10;99.90;;;;;;6763231;88;20210;-80
2023/06/07 09:34:33;;;;;;;1999.90;999.90;;;24.10;99.90;;;;;;6755008;88;20180;-80
2023/06/07 09:44:35;;;;;;;1999.90;999.90;;;24.80;99.90;;;;;;6756047;88;20203;-80
2023/06/07 09:54:36;;;;;;;1999.90;999.90;;;25.80;99.20;;;;;;6746072;88;20175;-80
2023/06/07 10:04:37;;;;;;;1999.90;999.90;;;25.90;99.10;;;;;;6744696;88;20719;-80
2023/06/07 10:14:40;;;;;;;1999.90;999.90;;;25.50;99.50;;;;;;6744033;88;20428;-80
2023/06/07 10:25:18;;;;;;;1999.90;999.90;;;24.90;99.00;;;;;;6739507;88;20214;-80
2023/06/07 10:35:20;;;;;;;1999.90;999.90;;;23.90;99.90;;;;;;6711621;88;20246;-80
2023/06/07 10:45:21;;;;;;;1999.90;999.90;;;23.40;99.90;;;;;;6725654;88;20196;-80
2023/06/07 10:55:26;;;;;;;1999.90;999.90;;;22.90;99.90;;;;;;6761741;88;20322;-80
2023/06/07 11:05:55;;;;;;;1999.90;999.90;;;23.10;99.90;;;;;;6754927;88;20220;-80
2023/06/07 11:16:22;;;;;;;1999.90;999.90;;;24.40;99.90;;;;;;6734755;88;20232;-80
2023/06/07 11:26:22;;;;;;;1999.90;999.90;;;25.80;99.90;;;;;;6744084;88;20209;-80
2023/06/07 11:36:23;;;;;;;1999.90;999.90;;;25.80;99.90;;;;;;6730380;88;20193;-81
2023/06/07 11:46:23;;;;;;;1999.90;999.90;;;25.60;99.90;;;;;;6741955;88;20643;-81
2023/06/07 11:56:26;;;;;;;1999.90;999.90;;;27.70;98.70;;;;;;6755847;88;20199;-81
2023/06/07 12:06:27;;;;;;;1999.90;999.90;;;26.90;99.00;;;;;;6756424;88;20642;-81
2023/06/07 12:16:27;;;;;;;1999.90;999.90;;;28.00;98.30;;;;;;6756574;87;20237;-80
2023/06/07 12:26:28;;;;;;;1999.90;999.90;;;27.80;98.20;;;;;;6767750;88;20680;-80
2023/06/07 12:36:33;;;;;;;1999.90;999.90;;;27.00;98.70;;;;;;6726742;88;20195;-81
2023/06/07 12:46:33;;;;;;;1999.90;999.90;;;26.60;99.00;;;;;;6725305;88;20189;-81
2023/06/07 12:56:34;;;;;;;1999.90;999.90;;;27.10;98.60;;;;;;6725405;88;20209;-80
2023/06/07 13:06:36;;;;;;;1999.90;999.90;;;25.80;99.90;;;;;;6732965;88;20193;-79
2023/06/07 13:16:37;;;;;;;1999.90;999.90;;;26.00;99.90;;;;;;6741482;88;20245;-80
2023/06/07 13:26:37;;;;;;;1999.90;999.90;;;24.90;99.90;;;;;;6740999;88;20192;-79
2023/06/07 13:36:38;;;;;;;1999.90;999.90;;;24.30;99.90;;;;;;6743032;88;20210;-80
2023/06/07 13:46:39;;;;;;;1999.90;999.90;;;24.40;99.90;;;;;;6746624;88;20192;-80
2023/06/07 13:56:40;;;;;;;1999.90;999.90;;;24.90;99.90;;;;;;6731813;88;20236;-79
2023/06/07 14:06:42;;;;;;;1999.90;999.90;;;25.90;99.90;;;;;;6722256;88;20213;-80
2023/06/07 14:16:43;;;;;;;1999.90;999.90;;;27.00;99.90;;;;;;6743601;88;20204;-81
2023/06/07 14:26:43;;;;;;;1999.90;999.90;;;26.70;99.90;;;;;;6755020;88;20204;-80
2023/06/07 14:36:44;;;;;;;1999.90;999.90;;;27.60;99.60;;;;;;6750918;88;20177;-81
2023/06/07 14:46:46;;;;;;;1999.90;999.90;;;28.30;99.60;;;;;;6751593;88;20206;-81
2023/06/07 14:56:46;;;;;;;1999.90;999.90;;;28.00;99.90;;;;;;6748961;88;20579;-80
2023/06/07 15:06:47;;;;;;;1999.90;999.90;;;26.90;99.90;;;;;;6754999;88;20323;-81
2023/06/07 15:16:47;;;;;;;1999.90;999.90;;;26.80;98.80;;;;;;6746650;88;20221;-80
2023/06/07 15:26:48;;;;;;;1999.90;999.90;;;26.80;96.70;;;;;;6747001;88;20221;-80
2023/06/07 15:36:48;;;;;;;1999.90;999.90;;;27.70;96.80;;;;;;6740623;88;20211;-81
2023/06/07 15:46:49;;;;;;;1999.90;999.90;;;27.80;96.90;;;;;;6746436;88;20296;-82
2023/06/07 15:56:49;;;;;;;1999.90;999.90;;;28.10;97.20;;;;;;6744118;88;20687;-83
2023/06/07 16:06:50;;;;;;;1999.90;999.90;;;27.20;97.50;;;;;;6751413;88;20952;-81
2023/06/07 16:16:50;;;;;;;1999.90;999.90;;;25.80;99.60;;;;;;6758850;88;21546;-82
2023/06/07 16:26:51;;;;;;;1999.90;999.90;;;25.20;99.90;;;;;;6753252;88;20884;-80
2023/06/07 16:36:51;;;;;;;1999.90;999.90;;;24.50;99.90;;;;;;6750173;88;20182;-80
2023/06/07 16:46:52;;;;;;;1999.90;999.90;;;24.20;99.90;;;;;;6758862;88;20192;-81
2023/06/07 16:56:53;;;;;;;1999.90;999.90;;;24.60;99.90;;;;;;6746151;88;20276;-80
2023/06/07 17:06:53;;;;;;;1999.90;999.90;;;24.80;99.90;;;;;;6738270;88;20203;-80
2023/06/07 17:16:54;;;;;;;1999.90;999.90;;;24.50;99.90;;;;;;6744976;88;20401;-79
2023/06/07 17:26:54;;;;;;;1999.90;999.90;;;23.90;99.90;;;;;;6743053;88;20210;-79
2023/06/07 17:36:55;;;;;;;1999.90;999.90;;;23.70;99.90;;;;;;6741710;88;20215;-78
2023/06/07 17:46:55;;;;;;;1999.90;999.90;;;23.50;99.90;;;;;;6741083;88;20303;-79
2023/06/07 17:56:57;;;;;;;1999.90;999.90;;;23.60;99.90;;;;;;6728695;88;20193;-78
2023/06/07 18:06:57;;;;;;;1999.90;999.90;;;23.50;99.90;;;;;;6734649;88;20209;-79
2023/06/07 18:16:58;;;;;;;1999.90;999.90;;;23.50;99.90;;;;;;6743223;88;20225;-80
2023/06/07 18:26:59;;;;;;;1999.90;999.90;;;23.30;99.90;;;;;;6743737;88;20211;-79
2023/06/07 18:36:59;;;;;;;1999.90;999.90;;;23.00;99.90;;;;;;6748167;88;21196;-78
2023/06/07 18:47:01;;;;;;;1999.90;999.90;;;22.90;99.90;;;;;;6744304;88;20647;-79
2023/06/07 18:57:02;;;;;;;1999.90;999.90;;;22.60;99.90;;;;;;6740536;88;20201;-80
2023/06/07 19:07:03;;;;;;;1999.90;999.90;;;22.40;99.90;;;;;;6745116;88;20627;-80
2023/06/07 19:17:03;;;;;;;1999.90;999.90;;;22.20;99.90;;;;;;6739128;88;20313;-79
2023/06/07 19:27:04;;;;;;;1999.90;999.90;;;22.10;99.90;;;;;;6736364;88;20644;-78
2023/06/07 19:37:05;;;;;;;1999.90;999.90;;;21.90;99.90;;;;;;6731295;88;20174;-78
2023/06/07 19:47:07;;;;;;;1999.90;999.90;;;21.70;99.90;;;;;;6736990;88;20211;-78
2023/06/07 19:57:07;;;;;;;1999.90;999.90;;;21.20;99.90;;;;;;6747205;88;20225;-79
2023/06/07 20:07:08;;;;;;;1999.90;999.90;;;21.00;99.90;;;;;;6735636;88;20840;-79
2023/06/07 20:17:09;;;;;;;1999.90;999.90;;;20.90;99.90;;;;;;6748720;77;20188;-78
2023/06/07 20:27:12;;;;;;;1999.90;999.90;;;20.70;99.90;;;;;;6741531;87;20188;-78
2023/06/07 20:37:12;;;;;;;1999.90;999.90;;;20.60;99.90;;;;;;6747817;87;20180;-77
2023/06/07 20:47:13;;;;;;;1999.90;999.90;;;20.60;99.90;;;;;;6741919;87;20295;-80
2023/06/07 20:57:14;;;;;;;1999.90;999.90;;;20.50;99.90;;;;;;6754976;87;20793;-78
2023/06/07 21:07:15;;;;;;;1999.90;999.90;;;20.30;99.90;;;;;;6748730;87;20218;-79
2023/06/07 21:17:15;;;;;;;1999.90;999.90;;;20.20;99.90;;;;;;6748815;87;20184;-79
2023/06/07 21:27:16;;;;;;;1999.90;999.90;;;20.10;99.90;;;;;;6749562;87;20316;-76
2023/06/07 21:37:17;;;;;;;1999.90;999.90;;;19.80;99.90;;;;;;6743819;87;20319;-77
2023/06/07 21:47:18;;;;;;;1999.90;999.90;;;19.70;99.90;;;;;;6746708;87;20195;-77
2023/06/07 21:57:18;;;;;;;1999.90;999.90;;;19.50;99.90;;;;;;6755580;87;20187;-77
2023/06/07 22:07:19;;;;;;;1999.90;999.90;;;19.30;99.90;;;;;;6750073;87;20215;-77
2023/06/07 22:17:19;;;;;;;1999.90;999.90;;;19.20;99.90;;;;;;6750851;87;20208;-77
2023/06/07 22:27:21;;;;;;;1999.90;999.90;;;19.20;99.90;;;;;;6748637;87;20203;-77
2023/06/07 22:37:31;;;;;;;1999.90;999.90;;;19.10;99.90;;;;;;6745581;87;20203;-78
2023/06/07 22:47:32;;;;;;;1999.90;999.90;;;18.90;99.90;;;;;;6745965;87;20172;-78
2023/06/07 22:57:33;;;;;;;1999.90;999.90;;;18.80;99.90;;;;;;6751544;87;20196;-77
2023/06/07 23:07:34;;;;;;;1999.90;999.90;;;18.70;99.90;;;;;;6754165;87;20192;-77
2023/06/07 23:17:35;;;;;;;1999.90;999.90;;;18.60;99.90;;;;;;6745692;87;20184;-77
2023/06/07 23:27:35;;;;;;;1999.90;999.90;;;18.50;99.90;;;;;;6756317;87;20188;-76
2023/06/07 23:37:36;;;;;;;1999.90;999.90;;;18.30;99.90;;;;;;6749527;88;20205;-76
2023/06/07 23:47:36;;;;;;;1999.90;999.90;;;18.30;99.90;;;;;;6750312;88;20191;-76
2023/06/07 23:57:37;;;;;;;1999.90;999.90;;;18.10;99.90;;;;;;6750291;88;20666;-78
